sensor_id;sensor_type;location;lat;lon;timestamp;P1;durP1;ratioP1;P2;durP2;ratioP2
66546;SDS011;53400;50.364;14.874;2023-04-21T00:00:52;22.77;;;12.32;;
66546;SDS011;53400;50.364;14.874;2023-04-21T00:03:22;20.88;;;12.50;;
66546;SDS011;53400;50.364;14.874;2023-04-21T00:05:48;20.38;;;11.73;;
66546;SDS011;53400;50.364;14.874;2023-04-21T00:08:16;21.63;;;13.15;;
66546;SDS011;53400;50.364;14.874;2023-04-21T00:10:43;23.08;;;12.00;;
66546;SDS011;53400;50.364;14.874;2023-04-21T00:13:11;19.90;;;11.40;;
66546;SDS011;53400;50.364;14.874;2023-04-21T00:15:40;19.75;;;11.82;;
66546;SDS011;53400;50.364;14.874;2023-04-21T00:18:07;18.58;;;11.50;;
66546;SDS011;53400;50.364;14.874;2023-04-21T00:20:35;19.98;;;11.77;;
66546;SDS011;53400;50.364;14.874;2023-04-21T00:23:03;19.02;;;10.98;;
66546;SDS011;53400;50.364;14.874;2023-04-21T00:25:30;22.33;;;11.75;;
66546;SDS011;53400;50.364;14.874;2023-04-21T00:27:57;18.67;;;11.30;;
66546;SDS011;53400;50.364;14.874;2023-04-21T00:30:23;21.85;;;12.18;;
66546;SDS011;53400;50.364;14.874;2023-04-21T00:32:53;20.17;;;11.90;;
66546;SDS011;53400;50.364;14.874;2023-04-21T00:35:20;19.90;;;11.55;;
66546;SDS011;53400;50.364;14.874;2023-04-21T00:37:47;23.15;;;12.93;;
66546;SDS011;53400;50.364;14.874;2023-04-21T00:40:14;18.92;;;10.90;;
66546;SDS011;53400;50.364;14.874;2023-04-21T00:42:41;22.05;;;11.02;;
66546;SDS011;53400;50.364;14.874;2023-04-21T00:45:08;19.58;;;11.10;;
66546;SDS011;53400;50.364;14.874;2023-04-21T00:47:35;19.65;;;11.07;;
66546;SDS011;53400;50.364;14.874;2023-04-21T00:50:04;18.42;;;10.77;;
66546;SDS011;53400;50.364;14.874;2023-04-21T00:52:32;21.10;;;10.23;;
66546;SDS011;53400;50.364;14.874;2023-04-21T00:55:00;17.98;;;10.25;;
66546;SDS011;53400;50.364;14.874;2023-04-21T00:57:34;18.15;;;9.65;;
66546;SDS011;53400;50.364;14.874;2023-04-21T01:00:02;18.75;;;9.93;;
66546;SDS011;53400;50.364;14.874;2023-04-21T01:02:38;15.95;;;9.27;;
66546;SDS011;53400;50.364;14.874;2023-04-21T01:05:07;18.95;;;9.52;;
66546;SDS011;53400;50.364;14.874;2023-04-21T01:07:41;16.75;;;8.10;;
66546;SDS011;53400;50.364;14.874;2023-04-21T01:10:08;14.57;;;8.45;;
66546;SDS011;53400;50.364;14.874;2023-04-21T01:12:43;13.95;;;8.55;;
66546;SDS011;53400;50.364;14.874;2023-04-21T01:15:14;16.05;;;8.45;;
66546;SDS011;53400;50.364;14.874;2023-04-21T01:17:44;15.60;;;8.50;;
66546;SDS011;53400;50.364;14.874;2023-04-21T01:20:14;19.50;;;9.15;;
66546;SDS011;53400;50.364;14.874;2023-04-21T01:22:44;19.23;;;9.10;;
66546;SDS011;53400;50.364;14.874;2023-04-21T01:25:11;15.23;;;8.40;;
66546;SDS011;53400;50.364;14.874;2023-04-21T01:27:39;15.55;;;8.65;;
66546;SDS011;53400;50.364;14.874;2023-04-21T01:30:07;15.95;;;8.43;;
66546;SDS011;53400;50.364;14.874;2023-04-21T01:32:39;16.17;;;8.77;;
66546;SDS011;53400;50.364;14.874;2023-04-21T01:35:07;16.52;;;8.23;;
66546;SDS011;53400;50.364;14.874;2023-04-21T01:37:35;13.85;;;7.43;;
66546;SDS011;53400;50.364;14.874;2023-04-21T01:40:09;13.48;;;7.43;;
66546;SDS011;53400;50.364;14.874;2023-04-21T01:42:37;13.35;;;8.23;;
66546;SDS011;53400;50.364;14.874;2023-04-21T01:45:09;11.60;;;6.80;;
66546;SDS011;53400;50.364;14.874;2023-04-21T01:47:44;13.25;;;6.82;;
66546;SDS011;53400;50.364;14.874;2023-04-21T01:50:12;12.35;;;6.97;;
66546;SDS011;53400;50.364;14.874;2023-04-21T01:52:41;15.80;;;7.55;;
66546;SDS011;53400;50.364;14.874;2023-04-21T01:55:13;13.90;;;7.60;;
66546;SDS011;53400;50.364;14.874;2023-04-21T01:57:42;11.82;;;6.50;;
66546;SDS011;53400;50.364;14.874;2023-04-21T02:00:11;12.95;;;7.00;;
66546;SDS011;53400;50.364;14.874;2023-04-21T02:02:42;12.88;;;7.15;;
66546;SDS011;53400;50.364;14.874;2023-04-21T02:05:13;12.80;;;6.88;;
66546;SDS011;53400;50.364;14.874;2023-04-21T02:07:40;11.95;;;7.10;;
66546;SDS011;53400;50.364;14.874;2023-04-21T02:10:07;12.27;;;6.95;;
66546;SDS011;53400;50.364;14.874;2023-04-21T02:12:38;14.90;;;7.18;;
66546;SDS011;53400;50.364;14.874;2023-04-21T02:15:07;15.23;;;7.05;;
66546;SDS011;53400;50.364;14.874;2023-04-21T02:17:42;11.15;;;6.22;;
66546;SDS011;53400;50.364;14.874;2023-04-21T02:20:09;14.63;;;7.00;;
66546;SDS011;53400;50.364;14.874;2023-04-21T02:22:37;13.88;;;6.80;;
66546;SDS011;53400;50.364;14.874;2023-04-21T02:25:05;14.25;;;7.05;;
66546;SDS011;53400;50.364;14.874;2023-04-21T02:27:34;11.15;;;6.78;;
66546;SDS011;53400;50.364;14.874;2023-04-21T02:30:04;16.15;;;6.63;;
66546;SDS011;53400;50.364;14.874;2023-04-21T02:32:41;11.30;;;5.72;;
66546;SDS011;53400;50.364;14.874;2023-04-21T02:35:08;13.93;;;6.95;;
66546;SDS011;53400;50.364;14.874;2023-04-21T02:37:36;15.52;;;7.18;;
66546;SDS011;53400;50.364;14.874;2023-04-21T02:40:02;17.38;;;7.18;;
66546;SDS011;53400;50.364;14.874;2023-04-21T02:42:33;12.27;;;6.22;;
66546;SDS011;53400;50.364;14.874;2023-04-21T02:45:00;12.98;;;6.85;;
66546;SDS011;53400;50.364;14.874;2023-04-21T02:47:29;15.35;;;6.57;;
66546;SDS011;53400;50.364;14.874;2023-04-21T02:49:57;13.13;;;6.65;;
66546;SDS011;53400;50.364;14.874;2023-04-21T02:52:23;12.80;;;7.30;;
66546;SDS011;53400;50.364;14.874;2023-04-21T02:54:49;13.80;;;7.13;;
66546;SDS011;53400;50.364;14.874;2023-04-21T02:57:16;13.88;;;7.22;;
66546;SDS011;53400;50.364;14.874;2023-04-21T02:59:43;13.52;;;7.30;;
66546;SDS011;53400;50.364;14.874;2023-04-21T03:02:10;12.43;;;7.13;;
66546;SDS011;53400;50.364;14.874;2023-04-21T03:04:39;12.82;;;7.05;;
66546;SDS011;53400;50.364;14.874;2023-04-21T03:07:10;13.32;;;7.13;;
66546;SDS011;53400;50.364;14.874;2023-04-21T03:09:38;13.73;;;7.18;;
66546;SDS011;53400;50.364;14.874;2023-04-21T03:12:07;16.02;;;6.88;;
66546;SDS011;53400;50.364;14.874;2023-04-21T03:14:33;11.60;;;6.53;;
66546;SDS011;53400;50.364;14.874;2023-04-21T03:17:03;11.13;;;6.22;;
66546;SDS011;53400;50.364;14.874;2023-04-21T03:19:29;11.40;;;6.60;;
66546;SDS011;53400;50.364;14.874;2023-04-21T03:22:00;13.35;;;5.90;;
66546;SDS011;53400;50.364;14.874;2023-04-21T03:24:31;12.27;;;6.03;;
66546;SDS011;53400;50.364;14.874;2023-04-21T03:26:59;12.68;;;6.00;;
66546;SDS011;53400;50.364;14.874;2023-04-21T03:29:27;12.52;;;6.20;;
66546;SDS011;53400;50.364;14.874;2023-04-21T03:31:53;11.57;;;6.03;;
66546;SDS011;53400;50.364;14.874;2023-04-21T03:34:20;11.63;;;5.82;;
66546;SDS011;53400;50.364;14.874;2023-04-21T03:39:21;9.60;;;5.72;;
66546;SDS011;53400;50.364;14.874;2023-04-21T03:41:50;13.20;;;5.97;;
66546;SDS011;53400;50.364;14.874;2023-04-21T03:44:17;14.15;;;6.35;;
66546;SDS011;53400;50.364;14.874;2023-04-21T03:46:50;9.85;;;6.15;;
66546;SDS011;53400;50.364;14.874;2023-04-21T03:49:21;13.18;;;7.40;;
66546;SDS011;53400;50.364;14.874;2023-04-21T03:51:49;13.95;;;7.15;;
66546;SDS011;53400;50.364;14.874;2023-04-21T03:54:16;13.25;;;7.25;;
66546;SDS011;53400;50.364;14.874;2023-04-21T03:56:45;12.30;;;6.68;;
66546;SDS011;53400;50.364;14.874;2023-04-21T03:59:14;14.98;;;7.10;;
66546;SDS011;53400;50.364;14.874;2023-04-21T04:01:41;11.93;;;6.78;;
66546;SDS011;53400;50.364;14.874;2023-04-21T04:04:16;11.88;;;5.95;;
66546;SDS011;53400;50.364;14.874;2023-04-21T04:06:44;15.27;;;6.03;;
66546;SDS011;53400;50.364;14.874;2023-04-21T04:09:15;17.00;;;5.65;;
66546;SDS011;53400;50.364;14.874;2023-04-21T04:11:46;14.00;;;6.30;;
66546;SDS011;53400;50.364;14.874;2023-04-21T04:14:12;11.40;;;5.72;;
66546;SDS011;53400;50.364;14.874;2023-04-21T04:16:39;11.60;;;6.38;;
66546;SDS011;53400;50.364;14.874;2023-04-21T04:19:08;10.48;;;5.38;;
66546;SDS011;53400;50.364;14.874;2023-04-21T04:21:38;10.20;;;5.75;;
66546;SDS011;53400;50.364;14.874;2023-04-21T04:24:05;12.43;;;6.20;;
66546;SDS011;53400;50.364;14.874;2023-04-21T04:26:35;11.52;;;6.03;;
66546;SDS011;53400;50.364;14.874;2023-04-21T04:29:06;11.52;;;6.10;;
66546;SDS011;53400;50.364;14.874;2023-04-21T04:31:36;10.25;;;6.20;;
66546;SDS011;53400;50.364;14.874;2023-04-21T04:34:05;11.32;;;5.90;;
66546;SDS011;53400;50.364;14.874;2023-04-21T04:36:38;11.52;;;6.50;;
66546;SDS011;53400;50.364;14.874;2023-04-21T04:39:11;13.88;;;5.63;;
66546;SDS011;53400;50.364;14.874;2023-04-21T04:41:50;11.63;;;6.43;;
66546;SDS011;53400;50.364;14.874;2023-04-21T04:44:25;11.50;;;7.47;;
66546;SDS011;53400;50.364;14.874;2023-04-21T04:46:59;11.35;;;5.65;;
66546;SDS011;53400;50.364;14.874;2023-04-21T04:49:25;10.82;;;6.35;;
66546;SDS011;53400;50.364;14.874;2023-04-21T04:51:53;12.15;;;6.18;;
66546;SDS011;53400;50.364;14.874;2023-04-21T04:54:27;9.85;;;5.82;;
66546;SDS011;53400;50.364;14.874;2023-04-21T04:56:55;16.10;;;6.70;;
66546;SDS011;53400;50.364;14.874;2023-04-21T04:59:26;11.68;;;6.10;;
66546;SDS011;53400;50.364;14.874;2023-04-21T05:01:54;10.30;;;5.72;;
66546;SDS011;53400;50.364;14.874;2023-04-21T05:04:21;12.00;;;6.18;;
66546;SDS011;53400;50.364;14.874;2023-04-21T05:06:49;12.48;;;6.25;;
66546;SDS011;53400;50.364;14.874;2023-04-21T05:09:15;10.48;;;6.10;;
66546;SDS011;53400;50.364;14.874;2023-04-21T05:11:41;13.52;;;6.25;;
66546;SDS011;53400;50.364;14.874;2023-04-21T05:14:08;10.63;;;5.80;;
66546;SDS011;53400;50.364;14.874;2023-04-21T05:16:44;10.50;;;6.25;;
66546;SDS011;53400;50.364;14.874;2023-04-21T05:19:12;12.02;;;6.22;;
66546;SDS011;53400;50.364;14.874;2023-04-21T05:21:44;13.63;;;6.22;;
66546;SDS011;53400;50.364;14.874;2023-04-21T05:24:12;11.32;;;6.00;;
66546;SDS011;53400;50.364;14.874;2023-04-21T05:26:39;13.25;;;6.25;;
66546;SDS011;53400;50.364;14.874;2023-04-21T05:29:06;14.63;;;6.57;;
66546;SDS011;53400;50.364;14.874;2023-04-21T05:31:34;13.73;;;6.30;;
66546;SDS011;53400;50.364;14.874;2023-04-21T05:34:01;13.65;;;6.07;;
66546;SDS011;53400;50.364;14.874;2023-04-21T05:36:28;10.90;;;6.18;;
66546;SDS011;53400;50.364;14.874;2023-04-21T05:38:57;11.52;;;6.47;;
66546;SDS011;53400;50.364;14.874;2023-04-21T05:41:27;10.98;;;5.80;;
66546;SDS011;53400;50.364;14.874;2023-04-21T05:43:53;13.15;;;6.85;;
66546;SDS011;53400;50.364;14.874;2023-04-21T05:46:24;13.13;;;6.25;;
66546;SDS011;53400;50.364;14.874;2023-04-21T05:48:51;12.15;;;5.35;;
66546;SDS011;53400;50.364;14.874;2023-04-21T05:51:24;13.18;;;6.60;;
66546;SDS011;53400;50.364;14.874;2023-04-21T05:53:52;13.52;;;6.03;;
66546;SDS011;53400;50.364;14.874;2023-04-21T05:56:19;15.88;;;6.43;;
66546;SDS011;53400;50.364;14.874;2023-04-21T05:58:46;14.88;;;6.15;;
66546;SDS011;53400;50.364;14.874;2023-04-21T06:01:13;12.27;;;6.10;;
66546;SDS011;53400;50.364;14.874;2023-04-21T06:03:40;13.50;;;6.15;;
66546;SDS011;53400;50.364;14.874;2023-04-21T06:06:06;13.13;;;6.22;;
66546;SDS011;53400;50.364;14.874;2023-04-21T06:08:36;11.15;;;5.68;;
66546;SDS011;53400;50.364;14.874;2023-04-21T06:11:03;12.43;;;5.85;;
66546;SDS011;53400;50.364;14.874;2023-04-21T06:13:29;11.43;;;6.53;;
66546;SDS011;53400;50.364;14.874;2023-04-21T06:15:58;33.17;;;9.32;;
66546;SDS011;53400;50.364;14.874;2023-04-21T06:18:28;12.27;;;6.13;;
66546;SDS011;53400;50.364;14.874;2023-04-21T06:20:55;13.25;;;6.13;;
66546;SDS011;53400;50.364;14.874;2023-04-21T06:23:23;14.18;;;6.53;;
66546;SDS011;53400;50.364;14.874;2023-04-21T06:26:00;13.07;;;8.05;;
66546;SDS011;53400;50.364;14.874;2023-04-21T06:28:29;12.70;;;6.30;;
66546;SDS011;53400;50.364;14.874;2023-04-21T06:30:56;14.07;;;5.80;;
66546;SDS011;53400;50.364;14.874;2023-04-21T06:33:24;11.63;;;6.28;;
66546;SDS011;53400;50.364;14.874;2023-04-21T06:35:52;10.55;;;5.82;;
66546;SDS011;53400;50.364;14.874;2023-04-21T06:38:19;15.55;;;6.32;;
66546;SDS011;53400;50.364;14.874;2023-04-21T06:40:46;10.50;;;5.22;;
66546;SDS011;53400;50.364;14.874;2023-04-21T06:43:14;9.68;;;5.40;;
66546;SDS011;53400;50.364;14.874;2023-04-21T06:45:41;11.82;;;5.63;;
66546;SDS011;53400;50.364;14.874;2023-04-21T06:48:08;11.50;;;5.20;;
66546;SDS011;53400;50.364;14.874;2023-04-21T06:50:35;9.70;;;5.90;;
66546;SDS011;53400;50.364;14.874;2023-04-21T06:53:02;13.68;;;5.63;;
66546;SDS011;53400;50.364;14.874;2023-04-21T06:55:29;9.93;;;5.53;;
66546;SDS011;53400;50.364;14.874;2023-04-21T06:57:55;11.48;;;5.15;;
66546;SDS011;53400;50.364;14.874;2023-04-21T07:00:24;11.05;;;4.80;;
66546;SDS011;53400;50.364;14.874;2023-04-21T07:02:52;10.35;;;5.20;;
66546;SDS011;53400;50.364;14.874;2023-04-21T07:05:19;9.27;;;4.60;;
66546;SDS011;53400;50.364;14.874;2023-04-21T07:07:45;9.77;;;4.30;;
66546;SDS011;53400;50.364;14.874;2023-04-21T07:10:12;9.90;;;4.80;;
66546;SDS011;53400;50.364;14.874;2023-04-21T07:12:43;10.80;;;4.60;;
66546;SDS011;53400;50.364;14.874;2023-04-21T07:15:11;10.25;;;4.13;;
66546;SDS011;53400;50.364;14.874;2023-04-21T07:17:39;10.88;;;4.70;;
66546;SDS011;53400;50.364;14.874;2023-04-21T07:20:06;8.60;;;4.50;;
66546;SDS011;53400;50.364;14.874;2023-04-21T07:22:33;11.50;;;4.70;;
66546;SDS011;53400;50.364;14.874;2023-04-21T07:25:01;9.63;;;4.25;;
66546;SDS011;53400;50.364;14.874;2023-04-21T07:27:31;10.02;;;4.03;;
66546;SDS011;53400;50.364;14.874;2023-04-21T07:29:58;11.05;;;5.20;;
66546;SDS011;53400;50.364;14.874;2023-04-21T07:32:24;7.65;;;4.18;;
66546;SDS011;53400;50.364;14.874;2023-04-21T07:34:57;9.68;;;4.70;;
66546;SDS011;53400;50.364;14.874;2023-04-21T07:37:23;11.95;;;4.80;;
66546;SDS011;53400;50.364;14.874;2023-04-21T07:39:49;9.32;;;5.00;;
66546;SDS011;53400;50.364;14.874;2023-04-21T07:42:16;9.13;;;5.18;;
66546;SDS011;53400;50.364;14.874;2023-04-21T07:44:42;9.70;;;4.53;;
66546;SDS011;53400;50.364;14.874;2023-04-21T07:47:10;13.25;;;5.28;;
66546;SDS011;53400;50.364;14.874;2023-04-21T07:49:37;7.80;;;4.55;;
66546;SDS011;53400;50.364;14.874;2023-04-21T07:52:05;9.85;;;6.13;;
66546;SDS011;53400;50.364;14.874;2023-04-21T07:54:33;11.60;;;5.13;;
66546;SDS011;53400;50.364;14.874;2023-04-21T07:57:00;8.57;;;4.95;;
66546;SDS011;53400;50.364;14.874;2023-04-21T07:59:28;10.60;;;5.30;;
66546;SDS011;53400;50.364;14.874;2023-04-21T08:01:56;11.18;;;5.25;;
66546;SDS011;53400;50.364;14.874;2023-04-21T08:04:23;9.77;;;4.78;;
66546;SDS011;53400;50.364;14.874;2023-04-21T08:06:49;12.77;;;5.75;;
66546;SDS011;53400;50.364;14.874;2023-04-21T08:09:17;10.02;;;4.95;;
66546;SDS011;53400;50.364;14.874;2023-04-21T08:11:44;11.43;;;5.93;;
66546;SDS011;53400;50.364;14.874;2023-04-21T08:14:12;12.85;;;6.10;;
66546;SDS011;53400;50.364;14.874;2023-04-21T08:16:39;10.15;;;5.72;;
66546;SDS011;53400;50.364;14.874;2023-04-21T08:19:07;10.82;;;5.30;;
66546;SDS011;53400;50.364;14.874;2023-04-21T08:21:34;14.75;;;5.38;;
66546;SDS011;53400;50.364;14.874;2023-04-21T08:24:01;9.65;;;5.30;;
66546;SDS011;53400;50.364;14.874;2023-04-21T08:26:28;11.35;;;5.55;;
66546;SDS011;53400;50.364;14.874;2023-04-21T08:28:55;10.35;;;5.45;;
66546;SDS011;53400;50.364;14.874;2023-04-21T08:31:22;10.77;;;5.43;;
66546;SDS011;53400;50.364;14.874;2023-04-21T08:33:49;10.23;;;5.50;;
66546;SDS011;53400;50.364;14.874;2023-04-21T08:36:15;8.45;;;5.13;;
66546;SDS011;53400;50.364;14.874;2023-04-21T08:38:42;12.43;;;5.63;;
66546;SDS011;53400;50.364;14.874;2023-04-21T08:41:09;10.80;;;5.07;;
66546;SDS011;53400;50.364;14.874;2023-04-21T08:43:37;11.25;;;5.65;;
66546;SDS011;53400;50.364;14.874;2023-04-21T08:46:06;10.82;;;5.45;;
66546;SDS011;53400;50.364;14.874;2023-04-21T08:48:35;11.50;;;5.43;;
66546;SDS011;53400;50.364;14.874;2023-04-21T08:51:03;11.98;;;5.60;;
66546;SDS011;53400;50.364;14.874;2023-04-21T08:53:34;12.30;;;4.65;;
66546;SDS011;53400;50.364;14.874;2023-04-21T08:56:01;11.73;;;5.03;;
66546;SDS011;53400;50.364;14.874;2023-04-21T08:58:29;9.68;;;4.90;;
66546;SDS011;53400;50.364;14.874;2023-04-21T09:00:57;7.60;;;4.95;;
66546;SDS011;53400;50.364;14.874;2023-04-21T09:03:26;7.20;;;4.40;;
66546;SDS011;53400;50.364;14.874;2023-04-21T09:05:56;9.25;;;4.80;;
66546;SDS011;53400;50.364;14.874;2023-04-21T09:08:24;12.02;;;4.40;;
66546;SDS011;53400;50.364;14.874;2023-04-21T09:10:52;9.02;;;4.75;;
66546;SDS011;53400;50.364;14.874;2023-04-21T09:13:20;9.48;;;4.90;;
66546;SDS011;53400;50.364;14.874;2023-04-21T09:15:48;11.32;;;5.05;;
66546;SDS011;53400;50.364;14.874;2023-04-21T09:18:19;14.35;;;5.18;;
66546;SDS011;53400;50.364;14.874;2023-04-21T09:20:47;10.13;;;4.05;;
66546;SDS011;53400;50.364;14.874;2023-04-21T09:23:15;10.18;;;4.60;;
66546;SDS011;53400;50.364;14.874;2023-04-21T09:25:43;9.65;;;4.50;;
66546;SDS011;53400;50.364;14.874;2023-04-21T09:28:12;8.18;;;4.05;;
66546;SDS011;53400;50.364;14.874;2023-04-21T09:30:40;11.80;;;4.85;;
66546;SDS011;53400;50.364;14.874;2023-04-21T09:33:08;8.45;;;4.38;;
66546;SDS011;53400;50.364;14.874;2023-04-21T09:35:43;8.70;;;4.53;;
66546;SDS011;53400;50.364;14.874;2023-04-21T09:38:11;12.15;;;4.60;;
66546;SDS011;53400;50.364;14.874;2023-04-21T09:40:37;10.60;;;3.97;;
66546;SDS011;53400;50.364;14.874;2023-04-21T09:43:05;10.60;;;3.78;;
66546;SDS011;53400;50.364;14.874;2023-04-21T09:45:32;7.10;;;3.42;;
66546;SDS011;53400;50.364;14.874;2023-04-21T09:47:59;6.15;;;3.00;;
66546;SDS011;53400;50.364;14.874;2023-04-21T09:50:27;6.72;;;3.22;;
66546;SDS011;53400;50.364;14.874;2023-04-21T09:52:57;6.18;;;3.38;;
66546;SDS011;53400;50.364;14.874;2023-04-21T09:55:27;7.30;;;3.08;;
66546;SDS011;53400;50.364;14.874;2023-04-21T09:57:56;5.90;;;3.10;;
66546;SDS011;53400;50.364;14.874;2023-04-21T10:00:24;6.22;;;3.25;;
66546;SDS011;53400;50.364;14.874;2023-04-21T10:02:54;7.38;;;3.20;;
66546;SDS011;53400;50.364;14.874;2023-04-21T10:05:25;8.50;;;3.40;;
66546;SDS011;53400;50.364;14.874;2023-04-21T10:07:51;6.40;;;3.10;;
66546;SDS011;53400;50.364;14.874;2023-04-21T10:10:20;9.48;;;3.70;;
66546;SDS011;53400;50.364;14.874;2023-04-21T10:12:49;7.50;;;3.38;;
66546;SDS011;53400;50.364;14.874;2023-04-21T10:15:30;7.72;;;3.42;;
66546;SDS011;53400;50.364;14.874;2023-04-21T10:18:11;8.38;;;4.15;;
66546;SDS011;53400;50.364;14.874;2023-04-21T10:20:49;8.93;;;3.83;;
66546;SDS011;53400;50.364;14.874;2023-04-21T10:23:30;8.00;;;4.03;;
66546;SDS011;53400;50.364;14.874;2023-04-21T10:26:02;8.85;;;3.65;;
66546;SDS011;53400;50.364;14.874;2023-04-21T10:28:42;7.68;;;3.70;;
66546;SDS011;53400;50.364;14.874;2023-04-21T10:31:20;7.80;;;3.70;;
66546;SDS011;53400;50.364;14.874;2023-04-21T10:37:08;6.75;;;3.05;;
66546;SDS011;53400;50.364;14.874;2023-04-21T10:39:42;7.10;;;3.53;;
66546;SDS011;53400;50.364;14.874;2023-04-21T10:42:27;7.00;;;3.05;;
66546;SDS011;53400;50.364;14.874;2023-04-21T10:45:09;8.43;;;4.03;;
66546;SDS011;53400;50.364;14.874;2023-04-21T10:47:40;6.15;;;3.40;;
66546;SDS011;53400;50.364;14.874;2023-04-21T10:53:07;9.70;;;3.55;;
66546;SDS011;53400;50.364;14.874;2023-04-21T10:55:37;7.75;;;3.25;;
66546;SDS011;53400;50.364;14.874;2023-04-21T10:58:06;8.35;;;3.17;;
66546;SDS011;53400;50.364;14.874;2023-04-21T11:00:34;7.80;;;3.30;;
66546;SDS011;53400;50.364;14.874;2023-04-21T11:03:05;8.48;;;3.35;;
66546;SDS011;53400;50.364;14.874;2023-04-21T11:05:34;8.15;;;3.15;;
66546;SDS011;53400;50.364;14.874;2023-04-21T11:08:04;10.05;;;3.05;;
66546;SDS011;53400;50.364;14.874;2023-04-21T11:10:47;7.82;;;2.90;;
66546;SDS011;53400;50.364;14.874;2023-04-21T11:13:21;6.78;;;2.80;;
66546;SDS011;53400;50.364;14.874;2023-04-21T11:16:02;7.38;;;2.42;;
66546;SDS011;53400;50.364;14.874;2023-04-21T11:18:40;8.85;;;2.85;;
66546;SDS011;53400;50.364;14.874;2023-04-21T11:21:08;6.20;;;2.63;;
66546;SDS011;53400;50.364;14.874;2023-04-21T11:23:49;8.40;;;2.70;;
66546;SDS011;53400;50.364;14.874;2023-04-21T11:26:28;6.43;;;2.88;;
66546;SDS011;53400;50.364;14.874;2023-04-21T11:28:59;11.05;;;2.75;;
66546;SDS011;53400;50.364;14.874;2023-04-21T11:31:27;9.35;;;3.28;;
66546;SDS011;53400;50.364;14.874;2023-04-21T11:33:55;6.00;;;2.67;;
66546;SDS011;53400;50.364;14.874;2023-04-21T11:36:24;7.75;;;3.05;;
66546;SDS011;53400;50.364;14.874;2023-04-21T11:38:51;5.00;;;2.28;;
66546;SDS011;53400;50.364;14.874;2023-04-21T11:41:22;5.93;;;2.70;;
66546;SDS011;53400;50.364;14.874;2023-04-21T11:43:50;7.38;;;2.88;;
66546;SDS011;53400;50.364;14.874;2023-04-21T11:46:24;9.07;;;2.85;;
66546;SDS011;53400;50.364;14.874;2023-04-21T11:48:58;7.95;;;3.05;;
66546;SDS011;53400;50.364;14.874;2023-04-21T11:51:26;7.35;;;2.90;;
66546;SDS011;53400;50.364;14.874;2023-04-21T11:53:57;7.47;;;3.00;;
66546;SDS011;53400;50.364;14.874;2023-04-21T11:56:23;9.35;;;2.97;;
66546;SDS011;53400;50.364;14.874;2023-04-21T11:58:49;8.75;;;3.42;;
66546;SDS011;53400;50.364;14.874;2023-04-21T12:01:17;10.55;;;3.17;;
66546;SDS011;53400;50.364;14.874;2023-04-21T12:03:53;7.95;;;3.33;;
66546;SDS011;53400;50.364;14.874;2023-04-21T12:06:20;6.75;;;2.65;;
66546;SDS011;53400;50.364;14.874;2023-04-21T12:08:48;7.28;;;2.95;;
66546;SDS011;53400;50.364;14.874;2023-04-21T12:11:22;6.85;;;2.78;;
66546;SDS011;53400;50.364;14.874;2023-04-21T12:13:49;8.40;;;2.78;;
66546;SDS011;53400;50.364;14.874;2023-04-21T12:16:19;9.93;;;3.00;;
66546;SDS011;53400;50.364;14.874;2023-04-21T12:18:46;11.80;;;3.45;;
66546;SDS011;53400;50.364;14.874;2023-04-21T12:21:15;7.57;;;2.88;;
66546;SDS011;53400;50.364;14.874;2023-04-21T12:23:41;7.60;;;2.78;;
66546;SDS011;53400;50.364;14.874;2023-04-21T12:26:09;8.18;;;3.08;;
66546;SDS011;53400;50.364;14.874;2023-04-21T12:28:36;7.75;;;2.90;;
66546;SDS011;53400;50.364;14.874;2023-04-21T12:31:04;9.07;;;3.58;;
66546;SDS011;53400;50.364;14.874;2023-04-21T12:33:30;7.25;;;3.10;;
66546;SDS011;53400;50.364;14.874;2023-04-21T12:35:57;6.80;;;2.85;;
66546;SDS011;53400;50.364;14.874;2023-04-21T12:38:25;7.10;;;2.95;;
66546;SDS011;53400;50.364;14.874;2023-04-21T12:40:52;6.82;;;2.70;;
66546;SDS011;53400;50.364;14.874;2023-04-21T12:43:19;9.95;;;3.17;;
66546;SDS011;53400;50.364;14.874;2023-04-21T12:45:46;9.38;;;3.65;;
66546;SDS011;53400;50.364;14.874;2023-04-21T12:48:13;9.15;;;3.50;;
66546;SDS011;53400;50.364;14.874;2023-04-21T12:50:42;7.57;;;3.42;;
66546;SDS011;53400;50.364;14.874;2023-04-21T12:53:08;7.43;;;3.17;;
66546;SDS011;53400;50.364;14.874;2023-04-21T12:55:37;6.45;;;3.22;;
66546;SDS011;53400;50.364;14.874;2023-04-21T12:58:03;7.63;;;3.58;;
66546;SDS011;53400;50.364;14.874;2023-04-21T13:00:31;11.02;;;3.30;;
66546;SDS011;53400;50.364;14.874;2023-04-21T13:03:00;7.95;;;2.92;;
66546;SDS011;53400;50.364;14.874;2023-04-21T13:05:29;9.63;;;3.08;;
66546;SDS011;53400;50.364;14.874;2023-04-21T13:07:56;10.27;;;3.38;;
66546;SDS011;53400;50.364;14.874;2023-04-21T13:10:22;9.50;;;3.40;;
66546;SDS011;53400;50.364;14.874;2023-04-21T13:12:51;9.38;;;3.20;;
66546;SDS011;53400;50.364;14.874;2023-04-21T13:15:17;8.20;;;4.57;;
66546;SDS011;53400;50.364;14.874;2023-04-21T13:17:43;13.23;;;5.70;;
66546;SDS011;53400;50.364;14.874;2023-04-21T13:20:10;7.72;;;3.45;;
66546;SDS011;53400;50.364;14.874;2023-04-21T13:22:37;8.88;;;3.55;;
66546;SDS011;53400;50.364;14.874;2023-04-21T13:25:06;8.35;;;3.42;;
66546;SDS011;53400;50.364;14.874;2023-04-21T13:27:33;8.50;;;3.03;;
66546;SDS011;53400;50.364;14.874;2023-04-21T13:30:06;5.70;;;2.75;;
66546;SDS011;53400;50.364;14.874;2023-04-21T13:32:33;8.15;;;3.60;;
66546;SDS011;53400;50.364;14.874;2023-04-21T13:35:00;7.40;;;3.42;;
66546;SDS011;53400;50.364;14.874;2023-04-21T13:37:29;6.13;;;3.20;;
66546;SDS011;53400;50.364;14.874;2023-04-21T13:40:01;5.95;;;3.22;;
66546;SDS011;53400;50.364;14.874;2023-04-21T13:43:03;8.35;;;3.47;;
66546;SDS011;53400;50.364;14.874;2023-04-21T13:45:32;9.27;;;3.92;;
66546;SDS011;53400;50.364;14.874;2023-04-21T13:47:59;10.07;;;4.03;;
66546;SDS011;53400;50.364;14.874;2023-04-21T13:50:26;7.95;;;3.53;;
66546;SDS011;53400;50.364;14.874;2023-04-21T13:52:53;9.20;;;3.60;;
66546;SDS011;53400;50.364;14.874;2023-04-21T13:55:19;6.53;;;3.45;;
66546;SDS011;53400;50.364;14.874;2023-04-21T13:57:46;7.75;;;3.10;;
66546;SDS011;53400;50.364;14.874;2023-04-21T14:00:12;8.95;;;3.58;;
66546;SDS011;53400;50.364;14.874;2023-04-21T14:02:40;12.20;;;3.67;;
66546;SDS011;53400;50.364;14.874;2023-04-21T14:05:07;6.65;;;3.20;;
66546;SDS011;53400;50.364;14.874;2023-04-21T14:07:33;8.25;;;3.40;;
66546;SDS011;53400;50.364;14.874;2023-04-21T14:10:02;7.60;;;3.40;;
66546;SDS011;53400;50.364;14.874;2023-04-21T14:12:29;7.68;;;3.45;;
66546;SDS011;53400;50.364;14.874;2023-04-21T14:14:55;7.95;;;3.65;;
66546;SDS011;53400;50.364;14.874;2023-04-21T14:17:21;9.02;;;3.38;;
66546;SDS011;53400;50.364;14.874;2023-04-21T14:19:52;6.30;;;3.53;;
66546;SDS011;53400;50.364;14.874;2023-04-21T14:22:19;11.70;;;4.15;;
66546;SDS011;53400;50.364;14.874;2023-04-21T14:24:45;8.95;;;3.72;;
66546;SDS011;53400;50.364;14.874;2023-04-21T14:27:11;9.55;;;3.42;;
66546;SDS011;53400;50.364;14.874;2023-04-21T14:29:39;7.40;;;3.58;;
66546;SDS011;53400;50.364;14.874;2023-04-21T14:32:05;9.75;;;4.10;;
66546;SDS011;53400;50.364;14.874;2023-04-21T14:34:31;11.25;;;3.85;;
66546;SDS011;53400;50.364;14.874;2023-04-21T14:36:59;13.02;;;4.05;;
66546;SDS011;53400;50.364;14.874;2023-04-21T14:39:25;8.15;;;3.80;;
66546;SDS011;53400;50.364;14.874;2023-04-21T14:41:52;9.55;;;3.90;;
66546;SDS011;53400;50.364;14.874;2023-04-21T14:44:18;11.02;;;3.83;;